createdAt,value
2022-11-04T00:00:57.334Z,981.24
2022-11-04T00:01:57.332Z,981.26
2022-11-04T00:02:57.356Z,981.23
2022-11-04T00:03:57.281Z,981.22
2022-11-04T00:04:57.237Z,981.19
2022-11-04T00:05:57.248Z,981.15
2022-11-04T00:06:57.199Z,981.16
2022-11-04T00:07:57.196Z,981.18
2022-11-04T00:08:57.168Z,981.20
2022-11-04T00:09:57.167Z,981.16
2022-11-04T00:10:57.217Z,981.18
2022-11-04T00:11:57.143Z,981.19
2022-11-04T00:12:57.139Z,981.19
2022-11-04T00:13:57.156Z,981.22
2022-11-04T00:14:57.122Z,981.17
2022-11-04T00:15:57.098Z,981.21
2022-11-04T00:16:57.097Z,981.23
2022-11-04T00:17:57.055Z,981.23
2022-11-04T00:18:57.065Z,981.22
2022-11-04T00:19:57.068Z,981.28
2022-11-04T00:20:57.016Z,981.29
2022-11-04T00:21:57.111Z,981.28
2022-11-04T00:22:57.016Z,981.28
2022-11-04T00:23:57.007Z,981.28
2022-11-04T00:24:56.985Z,981.42
2022-11-04T00:25:57.013Z,981.37
2022-11-04T00:26:56.988Z,981.38
2022-11-04T00:27:56.952Z,981.37
2022-11-04T00:28:56.913Z,981.38
2022-11-04T00:29:56.931Z,981.42
2022-11-04T00:30:56.920Z,981.35
2022-11-04T00:31:56.893Z,981.41
2022-11-04T00:32:56.885Z,981.31
2022-11-04T00:33:56.931Z,981.33
2022-11-04T00:34:56.878Z,981.30
2022-11-04T00:35:56.842Z,981.31
2022-11-04T00:36:56.845Z,981.31
2022-11-04T00:37:56.804Z,981.40
2022-11-04T00:38:56.835Z,981.46
2022-11-04T00:39:56.782Z,981.54
2022-11-04T00:40:56.829Z,981.57
2022-11-04T00:41:56.778Z,981.57
2022-11-04T00:42:56.731Z,981.60
2022-11-04T00:43:56.753Z,981.55
2022-11-04T00:44:56.730Z,981.58
2022-11-04T00:45:56.711Z,981.63
2022-11-04T00:46:56.728Z,981.63
2022-11-04T00:47:56.733Z,981.65
2022-11-04T00:48:56.715Z,981.67
2022-11-04T00:49:56.712Z,981.70
2022-11-04T00:50:56.692Z,981.65
2022-11-04T00:51:56.669Z,981.70
2022-11-04T00:52:56.812Z,981.69
2022-11-04T00:53:56.663Z,981.69
2022-11-04T00:54:56.695Z,981.71
2022-11-04T00:55:56.590Z,981.72
2022-11-04T00:56:56.567Z,981.68
2022-11-04T00:57:56.588Z,981.72
2022-11-04T00:58:56.635Z,981.70
2022-11-04T00:59:56.542Z,981.67
2022-11-04T01:00:56.593Z,981.67
2022-11-04T01:01:56.594Z,981.70
2022-11-04T01:02:56.495Z,981.74
2022-11-04T01:03:56.542Z,981.67
2022-11-04T01:04:56.464Z,981.73
2022-11-04T01:05:56.449Z,981.64
2022-11-04T01:06:56.463Z,981.65
2022-11-04T01:07:56.426Z,981.67
2022-11-04T01:08:56.475Z,981.68
2022-11-04T01:09:56.393Z,981.67
2022-11-04T01:10:56.491Z,981.70
2022-11-04T01:11:56.388Z,981.71
2022-11-04T01:12:56.362Z,981.67
2022-11-04T01:13:56.351Z,981.67
2022-11-04T01:14:56.336Z,981.69
2022-11-04T01:15:56.402Z,981.67
2022-11-04T01:16:56.329Z,981.73
2022-11-04T01:17:56.335Z,981.70
2022-11-04T01:18:56.295Z,981.69
2022-11-04T01:19:56.279Z,981.71
2022-11-04T01:20:56.262Z,981.64
2022-11-04T01:21:56.296Z,981.65
2022-11-04T01:22:56.219Z,981.65
2022-11-04T01:23:56.296Z,981.61
2022-11-04T01:24:56.198Z,981.66
2022-11-04T01:25:56.208Z,981.68
2022-11-04T01:26:56.178Z,981.62
2022-11-04T01:27:56.215Z,981.56
2022-11-04T01:28:56.157Z,981.63
2022-11-04T01:29:56.145Z,981.59
2022-11-04T01:30:56.118Z,981.68
2022-11-04T01:31:56.125Z,981.77
2022-11-04T01:32:56.116Z,981.67
2022-11-04T01:33:56.099Z,981.67
2022-11-04T01:34:56.092Z,981.70
2022-11-04T01:35:56.097Z,981.73
2022-11-04T01:36:56.059Z,981.70
2022-11-04T01:37:56.094Z,981.75
2022-11-04T01:38:56.056Z,981.71
2022-11-04T01:39:56.006Z,981.75
2022-11-04T01:40:55.997Z,981.73
2022-11-04T01:41:56.119Z,981.67
2022-11-04T01:42:55.964Z,981.61
2022-11-04T01:43:55.972Z,981.66
2022-11-04T01:44:56.046Z,981.64
2022-11-04T01:45:55.941Z,981.69
2022-11-04T01:46:55.977Z,981.64
2022-11-04T01:47:55.921Z,981.66
2022-11-04T01:48:55.913Z,981.62
2022-11-04T01:49:55.900Z,981.63
2022-11-04T01:50:55.892Z,981.66
2022-11-04T01:51:55.891Z,981.68
2022-11-04T01:52:55.840Z,981.74
2022-11-04T01:53:55.878Z,981.80
2022-11-04T01:54:55.859Z,981.77
2022-11-04T01:55:55.812Z,981.78
2022-11-04T01:56:55.962Z,981.75
2022-11-04T01:57:55.808Z,981.83
2022-11-04T01:58:55.798Z,981.79
2022-11-04T01:59:55.782Z,981.77
2022-11-04T02:00:55.825Z,981.77
2022-11-04T02:01:55.882Z,981.77
2022-11-04T02:02:55.738Z,981.77
2022-11-04T02:03:55.744Z,981.78
2022-11-04T02:04:55.708Z,981.72
2022-11-04T02:05:55.714Z,981.72
2022-11-04T02:06:55.699Z,981.75
2022-11-04T02:07:55.656Z,981.76
2022-11-04T02:08:55.705Z,981.70
2022-11-04T02:09:55.647Z,981.70
2022-11-04T02:10:55.640Z,981.69
2022-11-04T02:11:55.605Z,981.71
2022-11-04T02:12:55.587Z,981.62
2022-11-04T02:13:55.617Z,981.65
2022-11-04T02:14:55.577Z,981.63
2022-11-04T02:15:55.585Z,981.61
2022-11-04T02:16:55.571Z,981.69
2022-11-04T02:17:55.573Z,981.68
2022-11-04T02:18:55.520Z,981.64
2022-11-04T02:19:55.514Z,981.63
2022-11-04T02:20:55.547Z,981.60
2022-11-04T02:21:55.517Z,981.61
2022-11-04T02:22:55.483Z,981.60
2022-11-04T02:23:55.474Z,981.57
2022-11-04T02:24:55.463Z,981.66
2022-11-04T02:25:55.431Z,981.60
2022-11-04T02:26:55.462Z,981.53
2022-11-04T02:27:55.402Z,981.52
2022-11-04T02:28:55.421Z,981.57
2022-11-04T02:29:55.382Z,981.51
2022-11-04T02:30:55.370Z,981.42
2022-11-04T02:31:55.389Z,981.47
2022-11-04T02:32:55.394Z,981.44
2022-11-04T02:33:55.381Z,981.44
2022-11-04T02:34:55.325Z,981.50
2022-11-04T02:35:55.329Z,981.56
2022-11-04T02:36:55.295Z,981.48
2022-11-04T02:37:55.284Z,981.48
2022-11-04T02:38:55.274Z,981.46
2022-11-04T02:39:55.293Z,981.50
2022-11-04T02:40:55.248Z,981.52
2022-11-04T02:41:55.273Z,981.51
2022-11-04T02:42:55.220Z,981.56
2022-11-04T02:43:55.208Z,981.54
2022-11-04T02:44:55.216Z,981.59
2022-11-04T02:45:55.196Z,981.59
2022-11-04T02:46:55.154Z,981.62
2022-11-04T02:47:55.149Z,981.62
2022-11-04T02:48:55.143Z,981.68
2022-11-04T02:49:55.148Z,981.66
2022-11-04T02:50:55.107Z,981.68
2022-11-04T02:51:55.097Z,981.73
2022-11-04T02:52:55.087Z,981.75
2022-11-04T02:53:55.079Z,981.69
2022-11-04T02:54:55.068Z,981.72
